sensor_id;sensor_type;location;lat;lon;timestamp;pressure;altitude;pressure_sealevel;temperature;humidity
69318;BME280;56457;52.190;4.440;2023-04-10T00:00:54;102100.81;;;10.06;100.00
69318;BME280;56457;52.190;4.440;2023-04-10T00:01:56;102093.78;;;10.03;100.00
69318;BME280;56457;52.190;4.440;2023-04-10T00:02:58;102096.50;;;10.08;100.00
69318;BME280;56457;52.190;4.440;2023-04-10T00:04:02;102094.69;;;10.05;100.00
69318;BME280;56457;52.190;4.440;2023-04-10T00:05:04;102093.81;;;10.05;100.00
69318;BME280;56457;52.190;4.440;2023-04-10T00:06:06;102092.03;;;10.02;100.00
69318;BME280;56457;52.190;4.440;2023-04-10T00:07:08;102085.91;;;10.00;100.00
69318;BME280;56457;52.190;4.440;2023-04-10T00:08:09;102085.84;;;9.98;100.00
69318;BME280;56457;52.190;4.440;2023-04-10T00:09:09;102076.25;;;9.99;100.00
69318;BME280;56457;52.190;4.440;2023-04-10T00:10:10;102084.09;;;9.97;100.00
69318;BME280;56457;52.190;4.440;2023-04-10T00:11:11;102084.09;;;9.97;100.00
69318;BME280;56457;52.190;4.440;2023-04-10T00:12:12;102081.47;;;9.97;100.00
69318;BME280;56457;52.190;4.440;2023-04-10T00:13:15;102077.03;;;9.93;100.00
69318;BME280;56457;52.190;4.440;2023-04-10T00:14:16;102075.28;;;9.92;100.00
69318;BME280;56457;52.190;4.440;2023-04-10T00:15:22;102077.91;;;9.92;100.00
69318;BME280;56457;52.190;4.440;2023-04-10T00:16:23;102076.16;;;9.93;100.00
69318;BME280;56457;52.190;4.440;2023-04-10T00:17:24;102071.75;;;9.90;100.00
69318;BME280;56457;52.190;4.440;2023-04-10T00:18:25;102075.25;;;9.89;100.00
69318;BME280;56457;52.190;4.440;2023-04-10T00:19:25;102079.59;;;9.89;100.00
69318;BME280;56457;52.190;4.440;2023-04-10T00:20:26;102072.63;;;9.89;100.00
69318;BME280;56457;52.190;4.440;2023-04-10T00:21:26;102073.50;;;9.88;100.00
69318;BME280;56457;52.190;4.440;2023-04-10T00:22:27;102075.16;;;9.85;100.00
69318;BME280;56457;52.190;4.440;2023-04-10T00:23:27;102079.53;;;9.83;100.00
69318;BME280;56457;52.190;4.440;2023-04-10T00:24:30;102083.00;;;9.82;100.00
69318;BME280;56457;52.190;4.440;2023-04-10T00:25:31;102078.56;;;9.79;100.00
69318;BME280;56457;52.190;4.440;2023-04-10T00:26:31;102085.56;;;9.79;100.00
69318;BME280;56457;52.190;4.440;2023-04-10T00:27:31;102075.94;;;9.79;100.00
69318;BME280;56457;52.190;4.440;2023-04-10T00:28:32;102076.84;;;9.80;100.00
69318;BME280;56457;52.190;4.440;2023-04-10T00:29:32;102072.44;;;9.79;100.00
69318;BME280;56457;52.190;4.440;2023-04-10T00:30:32;102076.81;;;9.78;100.00
69318;BME280;56457;52.190;4.440;2023-04-10T00:31:33;102076.81;;;9.78;100.00
69318;BME280;56457;52.190;4.440;2023-04-10T00:32:33;102071.59;;;9.80;100.00
69318;BME280;56457;52.190;4.440;2023-04-10T00:33:33;102069.81;;;9.77;100.00
69318;BME280;56457;52.190;4.440;2023-04-10T00:34:33;102068.94;;;9.77;100.00
69318;BME280;56457;52.190;4.440;2023-04-10T00:35:34;102068.06;;;9.78;100.00
69318;BME280;56457;52.190;4.440;2023-04-10T00:36:34;102059.31;;;9.76;100.00
69318;BME280;56457;52.190;4.440;2023-04-10T00:37:35;102066.25;;;9.74;100.00
69318;BME280;56457;52.190;4.440;2023-04-10T00:38:35;102062.72;;;9.70;100.00
69318;BME280;56457;52.190;4.440;2023-04-10T00:39:37;102056.59;;;9.69;100.00
69318;BME280;56457;52.190;4.440;2023-04-10T00:40:37;102057.50;;;9.70;100.00
69318;BME280;56457;52.190;4.440;2023-04-10T00:41:37;102062.63;;;9.64;100.00
69318;BME280;56457;52.190;4.440;2023-04-10T00:42:38;102056.53;;;9.66;100.00
69318;BME280;56457;52.190;4.440;2023-04-10T00:43:38;102060.00;;;9.64;100.00
69318;BME280;56457;52.190;4.440;2023-04-10T00:44:39;102063.50;;;9.64;100.00
69318;BME280;56457;52.190;4.440;2023-04-10T00:45:40;102063.50;;;9.64;100.00
69318;BME280;56457;52.190;4.440;2023-04-10T00:46:40;102063.50;;;9.63;100.00
69318;BME280;56457;52.190;4.440;2023-04-10T00:47:41;102060.81;;;9.61;100.00
69318;BME280;56457;52.190;4.440;2023-04-10T00:48:41;102060.81;;;9.61;100.00
69318;BME280;56457;52.190;4.440;2023-04-10T00:49:42;102052.94;;;9.60;100.00
69318;BME280;56457;52.190;4.440;2023-04-10T00:50:42;102046.78;;;9.56;100.00
69318;BME280;56457;52.190;4.440;2023-04-10T00:51:43;102050.31;;;9.58;100.00
69318;BME280;56457;52.190;4.440;2023-04-10T00:52:43;102052.94;;;9.58;100.00
69318;BME280;56457;52.190;4.440;2023-04-10T00:53:43;102051.13;;;9.54;100.00
69318;BME280;56457;52.190;4.440;2023-04-10T00:54:44;102044.97;;;9.52;100.00
69318;BME280;56457;52.190;4.440;2023-04-10T00:55:45;102041.44;;;9.50;100.00
69318;BME280;56457;52.190;4.440;2023-04-10T00:56:45;102044.03;;;9.47;100.00
69318;BME280;56457;52.190;4.440;2023-04-10T00:57:46;102033.53;;;9.46;100.00
69318;BME280;56457;52.190;4.440;2023-04-10T00:58:46;102038.75;;;9.44;100.00
69318;BME280;56457;52.190;4.440;2023-04-10T00:59:47;102028.28;;;9.44;100.00
69318;BME280;56457;52.190;4.440;2023-04-10T01:00:47;102029.09;;;9.43;100.00
69318;BME280;56457;52.190;4.440;2023-04-10T01:01:48;102028.22;;;9.41;100.00
69318;BME280;56457;52.190;4.440;2023-04-10T01:02:48;102017.69;;;9.38;100.00
69318;BME280;56457;52.190;4.440;2023-04-10T01:03:49;102022.94;;;9.39;100.00
69318;BME280;56457;52.190;4.440;2023-04-10T01:04:49;102022.88;;;9.35;100.00
69318;BME280;56457;52.190;4.440;2023-04-10T01:07:10;102009.78;;;9.35;100.00
69318;BME280;56457;52.190;4.440;2023-04-10T01:08:21;102001.03;;;9.33;100.00
69318;BME280;56457;52.190;4.440;2023-04-10T01:10:28;101995.72;;;9.31;100.00
69318;BME280;56457;52.190;4.440;2023-04-10T01:15:15;102000.94;;;9.28;100.00
69318;BME280;56457;52.190;4.440;2023-04-10T01:16:22;101999.19;;;9.27;100.00
69318;BME280;56457;52.190;4.440;2023-04-10T01:17:30;101989.59;;;9.29;100.00
69318;BME280;56457;52.190;4.440;2023-04-10T01:18:49;101992.25;;;9.31;100.00
69318;BME280;56457;52.190;4.440;2023-04-10T01:20:03;101984.34;;;9.28;100.00
69318;BME280;56457;52.190;4.440;2023-04-10T01:21:04;101998.31;;;9.27;100.00
69318;BME280;56457;52.190;4.440;2023-04-10T01:22:07;101995.63;;;9.24;100.00
69318;BME280;56457;52.190;4.440;2023-04-10T01:24:35;101994.75;;;9.23;100.00
69318;BME280;56457;52.190;4.440;2023-04-10T01:28:58;101991.31;;;9.26;100.00
69318;BME280;56457;52.190;4.440;2023-04-10T01:29:59;101984.28;;;9.25;100.00
69318;BME280;56457;52.190;4.440;2023-04-10T01:31:00;101981.66;;;9.25;100.00
69318;BME280;56457;52.190;4.440;2023-04-10T01:32:02;101977.31;;;9.25;100.00
69318;BME280;56457;52.190;4.440;2023-04-10T01:33:04;101987.72;;;9.21;100.00
69318;BME280;56457;52.190;4.440;2023-04-10T01:34:08;101991.22;;;9.20;100.00
69318;BME280;56457;52.190;4.440;2023-04-10T01:35:09;101991.16;;;9.18;100.00
69318;BME280;56457;52.190;4.440;2023-04-10T01:36:11;101985.06;;;9.17;100.00
69318;BME280;56457;52.190;4.440;2023-04-10T01:37:29;101990.31;;;9.19;100.00
69318;BME280;56457;52.190;4.440;2023-04-10T01:38:29;101990.25;;;9.14;100.00
69318;BME280;56457;52.190;4.440;2023-04-10T01:39:31;101984.13;;;9.14;100.00
69318;BME280;56457;52.190;4.440;2023-04-10T01:40:35;101984.06;;;9.09;100.00
69318;BME280;56457;52.190;4.440;2023-04-10T01:41:37;101979.69;;;9.10;100.00
69318;BME280;56457;52.190;4.440;2023-04-10T01:42:43;101975.31;;;9.07;100.00
69318;BME280;56457;52.190;4.440;2023-04-10T01:43:47;101980.53;;;9.07;100.00
69318;BME280;56457;52.190;4.440;2023-04-10T01:44:48;101974.38;;;9.05;100.00
69318;BME280;56457;52.190;4.440;2023-04-10T01:45:50;101984.00;;;9.06;100.00
69318;BME280;56457;52.190;4.440;2023-04-10T01:46:51;101976.13;;;9.06;100.00
69318;BME280;56457;52.190;4.440;2023-04-10T01:47:51;101970.00;;;9.04;100.00
69318;BME280;56457;52.190;4.440;2023-04-10T01:48:52;101975.25;;;9.06;100.00
69318;BME280;56457;52.190;4.440;2023-04-10T01:49:53;101972.59;;;9.03;100.00
69318;BME280;56457;52.190;4.440;2023-04-10T01:50:54;101973.41;;;9.00;100.00
69318;BME280;56457;52.190;4.440;2023-04-10T01:51:55;101973.38;;;8.97;100.00
69318;BME280;56457;52.190;4.440;2023-04-10T01:52:57;101972.53;;;8.98;100.00
69318;BME280;56457;52.190;4.440;2023-04-10T01:53:58;101970.75;;;8.96;100.00
69318;BME280;56457;52.190;4.440;2023-04-10T01:55:00;101974.25;;;8.96;100.00
69318;BME280;56457;52.190;4.440;2023-04-10T01:56:01;101977.72;;;8.95;100.00
69318;BME280;56457;52.190;4.440;2023-04-10T01:57:02;101971.63;;;8.96;100.00
69318;BME280;56457;52.190;4.440;2023-04-10T01:58:03;101962.88;;;8.96;100.00
69318;BME280;56457;52.190;4.440;2023-04-10T01:59:04;101965.53;;;8.97;100.00
69318;BME280;56457;52.190;4.440;2023-04-10T02:00:04;101964.66;;;8.97;100.00
69318;BME280;56457;52.190;4.440;2023-04-10T02:01:05;101968.13;;;8.96;100.00
69318;BME280;56457;52.190;4.440;2023-04-10T02:02:06;101970.75;;;8.96;100.00
69318;BME280;56457;52.190;4.440;2023-04-10T02:03:07;101962.88;;;8.96;100.00
69318;BME280;56457;52.190;4.440;2023-04-10T02:04:07;101969.00;;;8.96;100.00
69318;BME280;56457;52.190;4.440;2023-04-10T02:05:08;101971.56;;;8.93;100.00
69318;BME280;56457;52.190;4.440;2023-04-10T02:06:13;101968.06;;;8.94;100.00
69318;BME280;56457;52.190;4.440;2023-04-10T02:07:16;101972.44;;;8.94;100.00
69318;BME280;56457;52.190;4.440;2023-04-10T02:08:41;101965.41;;;8.91;100.00
69318;BME280;56457;52.190;4.440;2023-04-10T02:10:57;101968.06;;;8.93;100.00
69318;BME280;56457;52.190;4.440;2023-04-10T02:12:05;101964.47;;;8.87;100.00
69318;BME280;56457;52.190;4.440;2023-04-10T02:13:07;101966.22;;;8.87;100.00
69318;BME280;56457;52.190;4.440;2023-04-10T02:14:10;101966.28;;;8.90;100.00
69318;BME280;56457;52.190;4.440;2023-04-10T02:15:15;101963.59;;;8.87;100.00
69318;BME280;56457;52.190;4.440;2023-04-10T02:16:18;101965.31;;;8.85;100.00
69318;BME280;56457;52.190;4.440;2023-04-10T02:17:22;101962.69;;;8.85;100.00
69318;BME280;56457;52.190;4.440;2023-04-10T02:18:25;101959.19;;;8.83;100.00
69318;BME280;56457;52.190;4.440;2023-04-10T02:19:26;101958.31;;;8.82;100.00
69318;BME280;56457;52.190;4.440;2023-04-10T02:20:27;101963.53;;;8.82;100.00
69318;BME280;56457;52.190;4.440;2023-04-10T02:21:27;101960.88;;;8.81;100.00
69318;BME280;56457;52.190;4.440;2023-04-10T02:22:28;101964.38;;;8.81;100.00
69318;BME280;56457;52.190;4.440;2023-04-10T02:23:28;101976.53;;;8.78;100.00
69318;BME280;56457;52.190;4.440;2023-04-10T02:24:29;101974.72;;;8.75;100.00
69318;BME280;56457;52.190;4.440;2023-04-10T02:25:30;101963.44;;;8.76;100.00
69318;BME280;56457;52.190;4.440;2023-04-10T02:26:44;101967.78;;;8.76;100.00
69318;BME280;56457;52.190;4.440;2023-04-10T02:27:45;101966.94;;;8.77;100.00
69318;BME280;56457;52.190;4.440;2023-04-10T02:28:45;101974.81;;;8.80;100.00
69318;BME280;56457;52.190;4.440;2023-04-10T02:29:45;101966.94;;;8.77;100.00
69318;BME280;56457;52.190;4.440;2023-04-10T02:30:45;101973.91;;;8.78;100.00
69318;BME280;56457;52.190;4.440;2023-04-10T02:31:46;101969.53;;;8.77;100.00
69318;BME280;56457;52.190;4.440;2023-04-10T02:32:46;101975.56;;;8.73;100.00
69318;BME280;56457;52.190;4.440;2023-04-10T02:33:46;101981.69;;;8.73;100.00
69318;BME280;56457;52.190;4.440;2023-04-10T02:34:47;101980.78;;;8.71;100.00
69318;BME280;56457;52.190;4.440;2023-04-10T02:35:47;101982.53;;;8.72;100.00
69318;BME280;56457;52.190;4.440;2023-04-10T02:36:47;101980.78;;;8.71;100.00
69318;BME280;56457;52.190;4.440;2023-04-10T02:37:48;101983.44;;;8.74;100.00
69318;BME280;56457;52.190;4.440;2023-04-10T02:38:49;101982.66;;;8.78;100.00
69318;BME280;56457;52.190;4.440;2023-04-10T02:39:50;101975.69;;;8.79;100.00
69318;BME280;56457;52.190;4.440;2023-04-10T02:40:50;101983.50;;;8.76;100.00
69318;BME280;56457;52.190;4.440;2023-04-10T02:41:50;101980.81;;;8.74;100.00
69318;BME280;56457;52.190;4.440;2023-04-10T02:42:51;101977.34;;;8.75;100.00
69318;BME280;56457;52.190;4.440;2023-04-10T02:43:51;101978.19;;;8.73;100.00
69318;BME280;56457;52.190;4.440;2023-04-10T02:44:51;101979.03;;;8.72;100.00
69318;BME280;56457;52.190;4.440;2023-04-10T02:45:52;101975.56;;;8.71;100.00
69318;BME280;56457;52.190;4.440;2023-04-10T02:46:52;101979.94;;;8.74;100.00
69318;BME280;56457;52.190;4.440;2023-04-10T02:47:52;101976.44;;;8.72;100.00
69318;BME280;56457;52.190;4.440;2023-04-10T02:48:52;101982.56;;;8.75;100.00
69318;BME280;56457;52.190;4.440;2023-04-10T02:49:53;101977.34;;;8.75;100.00
69318;BME280;56457;52.190;4.440;2023-04-10T02:50:56;101979.06;;;8.73;100.00
69318;BME280;56457;52.190;4.440;2023-04-10T02:51:57;101977.28;;;8.71;100.00
69318;BME280;56457;52.190;4.440;2023-04-10T02:52:57;101975.56;;;8.71;100.00
69318;BME280;56457;52.190;4.440;2023-04-10T02:53:57;101965.97;;;8.72;100.00
69318;BME280;56457;52.190;4.440;2023-04-10T02:54:58;101972.94;;;8.73;100.00
69318;BME280;56457;52.190;4.440;2023-04-10T02:55:58;101972.09;;;8.74;100.00
69318;BME280;56457;52.190;4.440;2023-04-10T02:56:58;101966.00;;;8.75;100.00
69318;BME280;56457;52.190;4.440;2023-04-10T02:57:59;101968.59;;;8.73;100.00
69318;BME280;56457;52.190;4.440;2023-04-10T02:58:59;101970.34;;;8.74;100.00
69318;BME280;56457;52.190;4.440;2023-04-10T03:00:00;101971.22;;;8.73;100.00
69318;BME280;56457;52.190;4.440;2023-04-10T03:01:01;101972.94;;;8.71;100.00
69318;BME280;56457;52.190;4.440;2023-04-10T03:02:02;101972.09;;;8.74;100.00
69318;BME280;56457;52.190;4.440;2023-04-10T03:03:02;101970.34;;;8.74;100.00
69318;BME280;56457;52.190;4.440;2023-04-10T03:04:02;101971.22;;;8.75;100.00
69318;BME280;56457;52.190;4.440;2023-04-10T03:05:03;101966.00;;;8.75;100.00
69318;BME280;56457;52.190;4.440;2023-04-10T03:06:03;101969.50;;;8.75;100.00
69318;BME280;56457;52.190;4.440;2023-04-10T03:07:04;101964.31;;;8.77;100.00
69318;BME280;56457;52.190;4.440;2023-04-10T03:08:04;101954.75;;;8.79;100.00
69318;BME280;56457;52.190;4.440;2023-04-10T03:09:05;101958.25;;;8.79;100.00
69318;BME280;56457;52.190;4.440;2023-04-10T03:10:05;101964.31;;;8.77;100.00
69318;BME280;56457;52.190;4.440;2023-04-10T03:11:06;101965.22;;;8.79;100.00
69318;BME280;56457;52.190;4.440;2023-04-10T03:12:07;101961.72;;;8.80;100.00
69318;BME280;56457;52.190;4.440;2023-04-10T03:13:07;101954.75;;;8.80;100.00
69318;BME280;56457;52.190;4.440;2023-04-10T03:14:07;101953.97;;;8.83;100.00
69318;BME280;56457;52.190;4.440;2023-04-10T03:15:09;101958.31;;;8.84;100.00
69318;BME280;56457;52.190;4.440;2023-04-10T03:16:09;101953.03;;;8.81;100.00
69318;BME280;56457;52.190;4.440;2023-04-10T03:17:09;101953.97;;;8.83;100.00
69318;BME280;56457;52.190;4.440;2023-04-10T03:18:11;101954.84;;;8.85;100.00
69318;BME280;56457;52.190;4.440;2023-04-10T03:19:11;101955.69;;;8.82;100.00
69318;BME280;56457;52.190;4.440;2023-04-10T03:20:12;101953.97;;;8.84;100.00
69318;BME280;56457;52.190;4.440;2023-04-10T03:21:12;101953.09;;;8.84;100.00
69318;BME280;56457;52.190;4.440;2023-04-10T03:22:12;101955.72;;;8.84;100.00
69318;BME280;56457;52.190;4.440;2023-04-10T03:23:13;101942.56;;;8.81;100.00
69318;BME280;56457;52.190;4.440;2023-04-10T03:24:13;101945.25;;;8.84;100.00
69318;BME280;56457;52.190;4.440;2023-04-10T03:25:13;101943.53;;;8.86;100.00
69318;BME280;56457;52.190;4.440;2023-04-10T03:26:14;101947.88;;;8.85;100.00
69318;BME280;56457;52.190;4.440;2023-04-10T03:27:15;101938.28;;;8.86;100.00
69318;BME280;56457;52.190;4.440;2023-04-10T03:28:15;101936.56;;;8.86;100.00
69318;BME280;56457;52.190;4.440;2023-04-10T03:29:19;101940.03;;;8.85;100.00
69318;BME280;56457;52.190;4.440;2023-04-10T03:30:19;101934.00;;;8.89;100.00
69318;BME280;56457;52.190;4.440;2023-04-10T03:31:20;101928.69;;;8.86;100.00
69318;BME280;56457;52.190;4.440;2023-04-10T03:32:20;101926.94;;;8.85;100.00
69318;BME280;56457;52.190;4.440;2023-04-10T03:33:20;101927.84;;;8.87;100.00
69318;BME280;56457;52.190;4.440;2023-04-10T03:34:21;101918.25;;;8.88;100.00
69318;BME280;56457;52.190;4.440;2023-04-10T03:35:21;101929.56;;;8.87;100.00
69318;BME280;56457;52.190;4.440;2023-04-10T03:36:22;101930.44;;;8.87;100.00
69318;BME280;56457;52.190;4.440;2023-04-10T03:37:22;101929.63;;;8.88;100.00
69318;BME280;56457;52.190;4.440;2023-04-10T03:38:22;101918.31;;;8.91;100.00
69318;BME280;56457;52.190;4.440;2023-04-10T03:39:23;101917.41;;;8.89;100.00
69318;BME280;56457;52.190;4.440;2023-04-10T03:40:23;101917.47;;;8.94;100.00
69318;BME280;56457;52.190;4.440;2023-04-10T03:41:24;101917.44;;;8.92;100.00
69318;BME280;56457;52.190;4.440;2023-04-10T03:42:24;101913.16;;;8.96;100.00
69318;BME280;56457;52.190;4.440;2023-04-10T03:43:25;101909.63;;;8.94;100.00
69318;BME280;56457;52.190;4.440;2023-04-10T03:44:25;101906.13;;;8.93;100.00
69318;BME280;56457;52.190;4.440;2023-04-10T03:45:28;101909.69;;;8.97;100.00
69318;BME280;56457;52.190;4.440;2023-04-10T03:46:28;101907.97;;;8.99;100.00
69318;BME280;56457;52.190;4.440;2023-04-10T03:47:32;101906.19;;;8.98;100.00
69318;BME280;56457;52.190;4.440;2023-04-10T03:48:32;101906.19;;;8.98;100.00
69318;BME280;56457;52.190;4.440;2023-04-10T03:49:33;101904.47;;;9.00;100.00
69318;BME280;56457;52.190;4.440;2023-04-10T03:50:33;101909.78;;;9.03;100.00
69318;BME280;56457;52.190;4.440;2023-04-10T03:51:33;101906.31;;;9.05;100.00
69318;BME280;56457;52.190;4.440;2023-04-10T03:52:34;101907.25;;;9.07;100.00
69318;BME280;56457;52.190;4.440;2023-04-10T03:53:34;101908.06;;;9.06;100.00
69318;BME280;56457;52.190;4.440;2023-04-10T03:54:35;101908.13;;;9.08;100.00
69318;BME280;56457;52.190;4.440;2023-04-10T03:55:35;101901.09;;;9.05;100.00
69318;BME280;56457;52.190;4.440;2023-04-10T03:56:37;101906.38;;;9.07;100.00
69318;BME280;56457;52.190;4.440;2023-04-10T03:57:37;101904.56;;;9.06;100.00
69318;BME280;56457;52.190;4.440;2023-04-10T03:58:38;101901.13;;;9.07;100.00
69318;BME280;56457;52.190;4.440;2023-04-10T03:59:38;101902.91;;;9.09;100.00
69318;BME280;56457;52.190;4.440;2023-04-10T04:00:38;101909.00;;;9.10;100.00
69318;BME280;56457;52.190;4.440;2023-04-10T04:01:39;101901.13;;;9.07;100.00
69318;BME280;56457;52.190;4.440;2023-04-10T04:02:40;101895.03;;;9.08;100.00
69318;BME280;56457;52.190;4.440;2023-04-10T04:03:40;101901.16;;;9.10;100.00
69318;BME280;56457;52.190;4.440;2023-04-10T04:04:40;101896.88;;;9.13;100.00
69318;BME280;56457;52.190;4.440;2023-04-10T04:05:41;101903.84;;;9.14;100.00
69318;BME280;56457;52.190;4.440;2023-04-10T04:06:41;101896.00;;;9.14;100.00
69318;BME280;56457;52.190;4.440;2023-04-10T04:07:41;101896.88;;;9.16;100.00
69318;BME280;56457;52.190;4.440;2023-04-10T04:08:42;101881.97;;;9.12;100.00
69318;BME280;56457;52.190;4.440;2023-04-10T04:09:42;101888.16;;;9.14;100.00
69318;BME280;56457;52.190;4.440;2023-04-10T04:10:42;101894.25;;;9.13;100.00
69318;BME280;56457;52.190;4.440;2023-04-10T04:11:43;101889.81;;;9.09;100.00
69318;BME280;56457;52.190;4.440;2023-04-10T04:12:43;101881.97;;;9.11;100.00
69318;BME280;56457;52.190;4.440;2023-04-10T04:13:43;101893.38;;;9.13;100.00
69318;BME280;56457;52.190;4.440;2023-04-10T04:14:43;101888.94;;;9.09;100.00
69318;BME280;56457;52.190;4.440;2023-04-10T04:15:44;101891.56;;;9.10;100.00
69318;BME280;56457;52.190;4.440;2023-04-10T04:16:44;101888.94;;;9.10;100.00
69318;BME280;56457;52.190;4.440;2023-04-10T04:17:45;101889.81;;;9.09;100.00
69318;BME280;56457;52.190;4.440;2023-04-10T04:18:45;101883.72;;;9.10;100.00
69318;BME280;56457;52.190;4.440;2023-04-10T04:19:45;101891.56;;;9.12;100.00
69318;BME280;56457;52.190;4.440;2023-04-10T04:20:46;101879.41;;;9.14;100.00
69318;BME280;56457;52.190;4.440;2023-04-10T04:21:46;101882.91;;;9.13;100.00
69318;BME280;56457;52.190;4.440;2023-04-10T04:22:46;101881.16;;;9.13;100.00
69318;BME280;56457;52.190;4.440;2023-04-10T04:23:47;101878.50;;;9.12;100.00
69318;BME280;56457;52.190;4.440;2023-04-10T04:24:47;101882.91;;;9.13;100.00
69318;BME280;56457;52.190;4.440;2023-04-10T04:25:47;101881.09;;;9.10;100.00
69318;BME280;56457;52.190;4.440;2023-04-10T04:26:51;101876.75;;;9.12;100.00
69318;BME280;56457;52.190;4.440;2023-04-10T04:27:52;101877.66;;;9.14;100.00
69318;BME280;56457;52.190;4.440;2023-04-10T04:28:52;101878.53;;;9.13;100.00
69318;BME280;56457;52.190;4.440;2023-04-10T04:29:52;101881.97;;;9.11;100.00
69318;BME280;56457;52.190;4.440;2023-04-10T04:30:53;101875.03;;;9.13;100.00
69318;BME280;56457;52.190;4.440;2023-04-10T04:31:53;101878.56;;;9.15;100.00
69318;BME280;56457;52.190;4.440;2023-04-10T04:32:53;101873.31;;;9.13;100.00
69318;BME280;56457;52.190;4.440;2023-04-10T04:33:53;101870.63;;;9.12;100.00
69318;BME280;56457;52.190;4.440;2023-04-10T04:34:54;101877.66;;;9.13;100.00
69318;BME280;56457;52.190;4.440;2023-04-10T04:35:55;101870.69;;;9.15;100.00
69318;BME280;56457;52.190;4.440;2023-04-10T04:36:55;101871.50;;;9.12;100.00
69318;BME280;56457;52.190;4.440;2023-04-10T04:37:55;101862.81;;;9.13;100.00
69318;BME280;56457;52.190;4.440;2023-04-10T04:38:56;101862.81;;;9.13;100.00
69318;BME280;56457;52.190;4.440;2023-04-10T04:39:56;101866.34;;;9.15;100.00
69318;BME280;56457;52.190;4.440;2023-04-10T04:40:56;101862.00;;;9.17;100.00
69318;BME280;56457;52.190;4.440;2023-04-10T04:41:57;101866.38;;;9.18;100.00
69318;BME280;56457;52.190;4.440;2023-04-10T04:42:57;101859.38;;;9.17;100.00
69318;BME280;56457;52.190;4.440;2023-04-10T04:43:58;101858.50;;;9.18;100.00
69318;BME280;56457;52.190;4.440;2023-04-10T04:44:59;101857.69;;;9.21;100.00
69318;BME280;56457;52.190;4.440;2023-04-10T04:45:59;101848.97;;;9.22;100.00
69318;BME280;56457;52.190;4.440;2023-04-10T04:46:59;101848.13;;;9.25;100.00
69318;BME280;56457;52.190;4.440;2023-04-10T04:47:59;101849.94;;;9.29;100.00
69318;BME280;56457;52.190;4.440;2023-04-10T04:49:00;101850.81;;;9.28;100.00
69318;BME280;56457;52.190;4.440;2023-04-10T04:50:00;101855.16;;;9.26;100.00
69318;BME280;56457;52.190;4.440;2023-04-10T04:51:01;101849.88;;;9.24;100.00
69318;BME280;56457;52.190;4.440;2023-04-10T04:52:01;101853.41;;;9.28;100.00
69318;BME280;56457;52.190;4.440;2023-04-10T04:53:01;101852.53;;;9.27;100.00
69318;BME280;56457;52.190;4.440;2023-04-10T04:54:02;101862.16;;;9.30;100.00
69318;BME280;56457;52.190;4.440;2023-04-10T04:55:02;101850.81;;;9.31;100.00
69318;BME280;56457;52.190;4.440;2023-04-10T04:56:03;101858.75;;;9.34;100.00
69318;BME280;56457;52.190;4.440;2023-04-10T04:57:03;101857.00;;;9.34;100.00
69318;BME280;56457;52.190;4.440;2023-04-10T04:58:03;101854.38;;;9.36;100.00
69318;BME280;56457;52.190;4.440;2023-04-10T04:59:04;101857.88;;;9.35;100.00
69318;BME280;56457;52.190;4.440;2023-04-10T05:00:04;101857.00;;;9.36;100.00
69318;BME280;56457;52.190;4.440;2023-04-10T05:01:05;101853.53;;;9.37;100.00
69318;BME280;56457;52.190;4.440;2023-04-10T05:02:05;101850.91;;;9.37;100.00
69318;BME280;56457;52.190;4.440;2023-04-10T05:03:06;101849.16;;;9.37;100.00
69318;BME280;56457;52.190;4.440;2023-04-10T05:04:06;101850.91;;;9.37;100.00
69318;BME280;56457;52.190;4.440;2023-04-10T05:05:06;101853.56;;;9.38;100.00
69318;BME280;56457;52.190;4.440;2023-04-10T05:06:07;101846.53;;;9.37;100.00
69318;BME280;56457;52.190;4.440;2023-04-10T05:07:07;101843.91;;;9.36;100.00
69318;BME280;56457;52.190;4.440;2023-04-10T05:08:07;101843.91;;;9.34;100.00
69318;BME280;56457;52.190;4.440;2023-04-10T05:09:08;101846.53;;;9.36;100.00
69318;BME280;56457;52.190;4.440;2023-04-10T05:10:09;101843.03;;;9.34;100.00
69318;BME280;56457;52.190;4.440;2023-04-10T05:11:09;101842.22;;;9.39;100.00
69318;BME280;56457;52.190;4.440;2023-04-10T05:12:09;101844.84;;;9.39;100.00
69318;BME280;56457;52.190;4.440;2023-04-10T05:13:10;101839.63;;;9.41;100.00
69318;BME280;56457;52.190;4.440;2023-04-10T05:14:10;101834.38;;;9.41;100.00
69318;BME280;56457;52.190;4.440;2023-04-10T05:15:11;101836.13;;;9.42;100.00
69318;BME280;56457;52.190;4.440;2023-04-10T05:16:11;101841.38;;;9.43;100.00
69318;BME280;56457;52.190;4.440;2023-04-10T05:17:11;101838.78;;;9.43;100.00
69318;BME280;56457;52.190;4.440;2023-04-10T05:18:11;101839.69;;;9.44;100.00
69318;BME280;56457;52.190;4.440;2023-04-10T05:19:13;101851.94;;;9.48;100.00
69318;BME280;56457;52.190;4.440;2023-04-10T05:20:13;101843.19;;;9.48;100.00
69318;BME280;56457;52.190;4.440;2023-04-10T05:21:13;101838.84;;;9.50;100.00
69318;BME280;56457;52.190;4.440;2023-04-10T05:22:14;101844.97;;;9.50;100.00
69318;BME280;56457;52.190;4.440;2023-04-10T05:23:15;101851.06;;;9.49;100.00
69318;BME280;56457;52.190;4.440;2023-04-10T05:24:15;101850.19;;;9.50;100.00
69318;BME280;56457;52.190;4.440;2023-04-10T05:25:15;101842.34;;;9.50;100.00
69318;BME280;56457;52.190;4.440;2023-04-10T05:26:16;101839.72;;;9.50;100.00
69318;BME280;56457;52.190;4.440;2023-04-10T05:27:16;101846.75;;;9.51;100.00
69318;BME280;56457;52.190;4.440;2023-04-10T05:28:16;101838.91;;;9.54;100.00
69318;BME280;56457;52.190;4.440;2023-04-10T05:29:17;101835.41;;;9.52;100.00
69318;BME280;56457;52.190;4.440;2023-04-10T05:30:17;101839.78;;;9.52;100.00
69318;BME280;56457;52.190;4.440;2023-04-10T05:31:17;101836.28;;;9.53;100.00
69318;BME280;56457;52.190;4.440;2023-04-10T05:32:18;101835.41;;;9.54;100.00